Time;durP1;ratioP1;P1;durP2;ratioP2;P2;SDS_P1;SDS_P2;PMS_P1;PMS_P2;Temp;Humidity;BMP_temperature;BMP_pressure;BME280_temperature;BME280_humidity;BME280_pressure;Samples;Min_cycle;Max_cycle;Signal;HPM_P1;HPM_P2
2022/05/15 00:01:01;;;;;;;;;;;22.70;53.10;;;;;;4979628;28;20002;-65
2022/05/15 00:03:26;;;;;;;;;;;22.60;53.00;;;;;;4982723;28;20005;-67
2022/05/15 00:05:56;;;;;;;;;;;22.70;53.10;;;;;;4996091;28;19914;-65
2022/05/15 00:08:22;;;;;;;;;;;22.70;53.10;;;;;;5001377;28;19919;-67
2022/05/15 00:10:47;;;;;;;;;;;22.70;53.10;;;;;;4981261;28;20020;-67
2022/05/15 00:13:12;;;;;;;;;;;22.70;53.00;;;;;;4982103;28;19929;-65
2022/05/15 00:15:38;;;;;;;;;;;22.60;53.00;;;;;;4992263;28;20498;-65
2022/05/15 00:18:03;;;;;;;;;;;22.60;53.00;;;;;;5002741;28;19918;-65
2022/05/15 00:20:29;;;;;;;;;;;22.60;53.00;;;;;;4983656;28;20436;-67
2022/05/15 00:22:54;;;;;;;;;;;22.70;53.00;;;;;;4982081;28;19913;-67
2022/05/15 00:25:20;;;;;;;;;;;22.60;53.00;;;;;;4990179;28;19917;-67
2022/05/15 00:27:47;;;;;;;;;;;22.60;53.00;;;;;;5001103;28;19924;-65
2022/05/15 00:30:13;;;;;;;;;;;22.60;53.00;;;;;;4989924;28;19914;-65
2022/05/15 00:32:39;;;;;;;;;;;22.60;53.00;;;;;;4981856;28;20314;-65
2022/05/15 00:35:04;;;;;;;;;;;22.60;53.00;;;;;;4985281;28;19971;-65
2022/05/15 00:37:30;;;;;;;;;;;22.60;53.00;;;;;;5003031;28;20292;-64
2022/05/15 00:39:55;;;;;;;;;;;22.60;53.00;;;;;;4992089;28;20369;-65
2022/05/15 00:42:21;;;;;;;;;;;22.60;53.00;;;;;;4983026;28;19972;-67
2022/05/15 00:44:47;;;;;;;;;;;22.60;53.00;;;;;;4981034;28;19921;-65
2022/05/15 00:47:14;;;;;;;;;;;22.60;53.00;;;;;;5002666;28;19953;-65
2022/05/15 00:49:39;;;;;;;;;;;22.60;53.00;;;;;;4995654;28;19996;-63
2022/05/15 00:52:05;;;;;;;;;;;22.60;53.00;;;;;;4981570;28;20312;-67
2022/05/15 00:54:41;;;;;;;;;;;22.60;53.00;;;;;;4976726;28;19922;-63
2022/05/15 00:57:13;;;;;;;;;;;22.60;53.00;;;;;;4961867;28;19925;-66
2022/05/15 00:59:40;;;;;;;;;;;22.60;53.00;;;;;;4956407;28;19922;-67
2022/05/15 01:02:08;;;;;;;;;;;22.60;53.00;;;;;;5000827;28;19921;-67
2022/05/15 01:04:33;;;;;;;;;;;22.60;53.00;;;;;;4992990;28;19921;-67
2022/05/15 01:07:00;;;;;;;;;;;22.60;53.00;;;;;;4983178;28;20749;-66
2022/05/15 01:09:26;;;;;;;;;;;22.60;53.00;;;;;;4976281;28;19945;-66
2022/05/15 01:11:51;;;;;;;;;;;22.60;53.00;;;;;;5000331;28;19921;-66
2022/05/15 01:14:17;;;;;;;;;;;22.60;53.00;;;;;;4997115;28;19928;-67
2022/05/15 01:16:42;;;;;;;;;;;22.60;53.00;;;;;;4988391;28;19918;-63
2022/05/15 01:19:08;;;;;;;;;;;22.50;52.90;;;;;;4978232;28;19917;-65
2022/05/15 01:21:35;;;;;;;;;;;22.60;53.00;;;;;;4997472;28;20507;-64
2022/05/15 01:24:01;;;;;;;;;;;22.50;52.90;;;;;;5002056;28;19918;-67
2022/05/15 01:26:26;;;;;;;;;;;22.50;52.90;;;;;;4985404;28;20194;-67
2022/05/15 01:28:52;;;;;;;;;;;22.50;52.90;;;;;;4963967;28;20020;-66
2022/05/15 01:31:18;;;;;;;;;;;22.50;52.90;;;;;;4986795;28;19917;-62
2022/05/15 01:33:49;;;;;;;;;;;22.50;52.90;;;;;;5001261;28;19917;-68
2022/05/15 01:36:15;;;;;;;;;;;22.50;52.90;;;;;;4989974;28;19921;-68
2022/05/15 01:38:40;;;;;;;;;;;22.50;52.90;;;;;;4983650;28;19917;-67
2022/05/15 01:41:07;;;;;;;;;;;22.50;52.90;;;;;;4987366;28;19976;-67
2022/05/15 01:43:33;;;;;;;;;;;22.50;52.90;;;;;;5006028;28;19971;-67
2022/05/15 01:45:58;;;;;;;;;;;22.50;52.90;;;;;;4978960;28;19953;-67
2022/05/15 01:48:24;;;;;;;;;;;22.50;52.90;;;;;;4985608;28;19925;-64
2022/05/15 01:50:50;;;;;;;;;;;22.50;52.90;;;;;;4981025;28;19961;-67
2022/05/15 01:53:15;;;;;;;;;;;22.50;53.00;;;;;;4986238;28;20384;-68
2022/05/15 01:55:41;;;;;;;;;;;22.50;52.90;;;;;;4978903;28;19937;-68
2022/05/15 01:58:09;;;;;;;;;;;22.50;52.90;;;;;;5003757;28;19956;-63
2022/05/15 02:00:35;;;;;;;;;;;22.50;52.90;;;;;;4998605;28;19913;-67
2022/05/15 02:03:00;;;;;;;;;;;22.50;52.90;;;;;;4983760;28;20008;-67
2022/05/15 02:05:26;;;;;;;;;;;22.50;52.90;;;;;;4980872;28;19921;-64
2022/05/15 02:07:51;;;;;;;;;;;22.50;53.00;;;;;;5002677;28;20545;-67
2022/05/15 02:10:17;;;;;;;;;;;22.50;52.90;;;;;;4998331;28;19921;-65
2022/05/15 02:12:42;;;;;;;;;;;22.50;52.90;;;;;;4987669;28;19914;-67
2022/05/15 02:15:08;;;;;;;;;;;22.50;53.00;;;;;;4985210;28;20296;-63
2022/05/15 02:17:33;;;;;;;;;;;22.50;52.90;;;;;;4998850;28;19925;-67
2022/05/15 02:19:59;;;;;;;;;;;22.50;53.00;;;;;;5003286;28;19914;-67
2022/05/15 02:22:24;;;;;;;;;;;22.40;52.90;;;;;;4992983;28;19918;-67
2022/05/15 02:24:50;;;;;;;;;;;22.50;52.90;;;;;;4984981;28;20008;-67
2022/05/15 02:27:15;;;;;;;;;;;22.40;52.90;;;;;;4994305;28;19921;-67
2022/05/15 02:29:41;;;;;;;;;;;22.40;52.90;;;;;;5004140;28;20551;-67
2022/05/15 02:32:06;;;;;;;;;;;22.40;52.90;;;;;;4996996;28;19945;-67
2022/05/15 02:34:32;;;;;;;;;;;22.40;52.90;;;;;;4967826;28;19921;-66
2022/05/15 02:36:57;;;;;;;;;;;22.40;52.90;;;;;;4990713;28;19944;-66
2022/05/15 02:39:22;;;;;;;;;;;22.40;52.90;;;;;;5003488;28;19936;-67
2022/05/15 02:41:48;;;;;;;;;;;22.40;52.80;;;;;;5000318;28;19913;-67
2022/05/15 02:44:13;;;;;;;;;;;22.40;52.80;;;;;;4983948;28;19925;-67
2022/05/15 02:46:39;;;;;;;;;;;22.40;52.80;;;;;;4987317;28;20442;-67
2022/05/15 02:51:49;;;;;;;;;;;22.40;52.80;;;;;;4999171;28;19940;-63
2022/05/15 02:54:15;;;;;;;;;;;22.40;52.80;;;;;;4967909;28;20672;-65
2022/05/15 02:56:40;;;;;;;;;;;22.40;52.80;;;;;;4985798;28;19921;-62
2022/05/15 02:59:05;;;;;;;;;;;22.40;52.80;;;;;;5004603;28;19922;-60
2022/05/15 03:01:31;;;;;;;;;;;22.40;52.80;;;;;;5003718;28;20476;-64
2022/05/15 03:03:56;;;;;;;;;;;22.30;52.80;;;;;;4985566;28;19928;-64
2022/05/15 03:06:22;;;;;;;;;;;22.30;52.70;;;;;;4986236;28;19920;-64
2022/05/15 03:08:48;;;;;;;;;;;22.30;52.70;;;;;;5000912;28;19929;-60
2022/05/15 03:11:13;;;;;;;;;;;22.40;52.70;;;;;;5003470;28;19921;-63
2022/05/15 03:13:39;;;;;;;;;;;22.30;52.70;;;;;;4989829;28;19940;-61
2022/05/15 03:16:04;;;;;;;;;;;22.30;52.70;;;;;;4983800;28;19925;-62
2022/05/15 03:18:30;;;;;;;;;;;22.30;52.60;;;;;;4996043;28;19980;-63
2022/05/15 03:20:55;;;;;;;;;;;22.30;52.60;;;;;;5005740;28;19917;-62
2022/05/15 03:23:21;;;;;;;;;;;22.30;52.60;;;;;;4992105;28;19914;-62
2022/05/15 03:25:46;;;;;;;;;;;22.30;52.70;;;;;;4983839;28;20375;-61
2022/05/15 03:28:12;;;;;;;;;;;22.30;52.60;;;;;;4993167;28;19920;-58
2022/05/15 03:30:38;;;;;;;;;;;22.30;52.60;;;;;;5003336;28;19996;-63
2022/05/15 03:33:03;;;;;;;;;;;22.30;52.60;;;;;;4998072;28;21487;-61
2022/05/15 03:35:28;;;;;;;;;;;22.30;52.60;;;;;;4983332;28;19914;-63
2022/05/15 03:37:54;;;;;;;;;;;22.20;52.50;;;;;;4990708;28;20375;-64
2022/05/15 03:40:19;;;;;;;;;;;22.30;52.60;;;;;;5002475;28;19924;-63
2022/05/15 03:42:45;;;;;;;;;;;22.30;52.50;;;;;;4999872;28;19957;-62
2022/05/15 03:45:10;;;;;;;;;;;22.30;52.50;;;;;;4982283;28;19918;-63
2022/05/15 03:47:36;;;;;;;;;;;22.30;52.50;;;;;;4986529;28;19941;-62
2022/05/15 03:50:07;;;;;;;;;;;22.30;52.50;;;;;;5002999;28;19921;-62
2022/05/15 03:52:33;;;;;;;;;;;22.30;52.50;;;;;;5001688;28;19917;-62
2022/05/15 03:54:58;;;;;;;;;;;22.30;52.50;;;;;;4982682;28;19925;-63
2022/05/15 03:57:24;;;;;;;;;;;22.30;52.50;;;;;;4982505;28;20060;-62
2022/05/15 03:59:49;;;;;;;;;;;22.20;52.40;;;;;;4998838;28;19917;-64
2022/05/15 04:02:15;;;;;;;;;;;22.20;52.40;;;;;;5001341;28;19921;-66
2022/05/15 04:04:41;;;;;;;;;;;22.20;52.40;;;;;;4990056;28;20308;-65
2022/05/15 04:07:06;;;;;;;;;;;22.20;52.40;;;;;;4993275;28;19918;-62
2022/05/15 04:09:32;;;;;;;;;;;22.20;52.40;;;;;;4995600;28;20339;-62
2022/05/15 04:11:57;;;;;;;;;;;22.20;52.40;;;;;;5000902;28;19921;-64
2022/05/15 04:14:23;;;;;;;;;;;22.20;52.40;;;;;;4989616;28;19944;-64
2022/05/15 04:16:48;;;;;;;;;;;22.20;52.30;;;;;;4982384;28;19914;-61
2022/05/15 04:19:14;;;;;;;;;;;22.20;52.40;;;;;;4993065;28;19944;-63
2022/05/15 04:21:40;;;;;;;;;;;22.20;52.20;;;;;;5002684;28;19913;-63
2022/05/15 04:24:06;;;;;;;;;;;22.20;52.20;;;;;;4992188;28;19917;-63
2022/05/15 04:26:32;;;;;;;;;;;22.20;52.10;;;;;;4982458;28;20029;-63
2022/05/15 04:28:57;;;;;;;;;;;22.20;52.10;;;;;;4989232;28;20486;-63
2022/05/15 04:31:22;;;;;;;;;;;22.20;52.20;;;;;;5003056;28;20743;-64
2022/05/15 04:33:48;;;;;;;;;;;22.20;52.10;;;;;;4997671;28;19969;-61
2022/05/15 04:36:13;;;;;;;;;;;22.30;52.10;;;;;;4984826;28;19983;-63
2022/05/15 04:38:39;;;;;;;;;;;22.30;52.30;;;;;;4986432;28;20377;-62
2022/05/15 04:41:05;;;;;;;;;;;22.30;52.30;;;;;;5004253;28;19914;-61
2022/05/15 04:43:30;;;;;;;;;;;22.30;52.30;;;;;;5000579;28;19913;-64
2022/05/15 04:45:56;;;;;;;;;;;22.30;52.50;;;;;;4983313;28;19918;-66
2022/05/15 04:48:21;;;;;;;;;;;22.30;52.50;;;;;;4982669;28;20530;-63
2022/05/15 04:50:47;;;;;;;;;;;22.30;52.60;;;;;;5001419;28;19922;-60
2022/05/15 04:53:12;;;;;;;;;;;22.30;52.70;;;;;;5000478;28;19928;-62
2022/05/15 04:55:38;;;;;;;;;;;22.30;52.80;;;;;;4985479;28;19918;-62
2022/05/15 04:58:03;;;;;;;;;;;22.30;52.70;;;;;;4981333;28;20372;-63
2022/05/15 05:00:29;;;;;;;;;;;22.30;52.80;;;;;;4979714;28;19922;-62
2022/05/15 05:02:54;;;;;;;;;;;22.30;52.70;;;;;;4984548;28;20000;-64
2022/05/15 05:05:20;;;;;;;;;;;22.30;52.80;;;;;;4988524;28;19918;-61
2022/05/15 05:07:45;;;;;;;;;;;22.30;52.70;;;;;;4983703;28;19918;-62
2022/05/15 05:10:11;;;;;;;;;;;22.30;52.70;;;;;;4974782;28;19967;-62
2022/05/15 05:12:36;;;;;;;;;;;22.40;52.70;;;;;;5001374;28;19914;-62
2022/05/15 05:15:05;;;;;;;;;;;22.40;52.70;;;;;;4995459;28;19928;-59
2022/05/15 05:17:30;;;;;;;;;;;22.40;52.60;;;;;;4968651;28;19924;-61
2022/05/15 05:19:56;;;;;;;;;;;22.40;52.60;;;;;;4993412;28;20296;-61
2022/05/15 05:22:21;;;;;;;;;;;22.40;52.60;;;;;;5004585;28;19968;-62
2022/05/15 05:24:47;;;;;;;;;;;22.40;52.50;;;;;;4991447;28;19929;-64
2022/05/15 05:27:12;;;;;;;;;;;22.40;52.70;;;;;;4987301;28;19914;-65
2022/05/15 05:29:37;;;;;;;;;;;22.40;52.70;;;;;;4988718;28;20339;-66
2022/05/15 05:32:03;;;;;;;;;;;22.40;52.70;;;;;;5005824;28;20008;-65
2022/05/15 05:34:28;;;;;;;;;;;22.40;52.80;;;;;;5001851;28;20008;-65
2022/05/15 05:36:54;;;;;;;;;;;22.40;52.80;;;;;;4986178;28;20012;-65
2022/05/15 05:39:20;;;;;;;;;;;22.40;52.70;;;;;;4985759;28;19914;-67
2022/05/15 05:41:46;;;;;;;;;;;22.40;52.80;;;;;;5005919;28;19965;-66
2022/05/15 05:44:11;;;;;;;;;;;22.40;52.80;;;;;;5005575;28;20466;-67
2022/05/15 05:46:37;;;;;;;;;;;22.40;52.80;;;;;;4987415;28;19957;-66
2022/05/15 05:49:02;;;;;;;;;;;22.40;52.80;;;;;;4985677;28;20381;-66
2022/05/15 05:51:28;;;;;;;;;;;22.40;52.90;;;;;;4982207;28;19918;-66
2022/05/15 05:53:53;;;;;;;;;;;22.40;52.90;;;;;;4973380;28;20418;-66
2022/05/15 05:56:19;;;;;;;;;;;22.40;52.80;;;;;;4977575;28;20737;-66
2022/05/15 05:58:45;;;;;;;;;;;22.40;52.90;;;;;;4971334;28;19918;-67
2022/05/15 06:01:10;;;;;;;;;;;22.40;52.90;;;;;;4989672;28;20385;-66
2022/05/15 06:06:20;;;;;;;;;;;22.40;52.70;;;;;;4991047;28;19952;-67
2022/05/15 06:08:45;;;;;;;;;;;22.40;52.80;;;;;;4983604;28;20197;-66
2022/05/15 06:11:11;;;;;;;;;;;22.40;52.60;;;;;;4996728;28;19957;-65
2022/05/15 06:13:36;;;;;;;;;;;22.40;52.70;;;;;;5004210;28;19929;-65
2022/05/15 06:16:02;;;;;;;;;;;22.40;52.60;;;;;;4995628;28;19940;-66
2022/05/15 06:18:27;;;;;;;;;;;22.40;52.70;;;;;;4984587;28;19968;-64
2022/05/15 06:20:53;;;;;;;;;;;22.40;52.70;;;;;;4993453;28;19920;-64
2022/05/15 06:23:18;;;;;;;;;;;22.40;52.90;;;;;;5002903;28;20457;-64
2022/05/15 06:25:44;;;;;;;;;;;22.40;52.80;;;;;;4984089;28;19953;-64
2022/05/15 06:28:09;;;;;;;;;;;22.40;52.80;;;;;;4974370;28;19915;-65
2022/05/15 06:30:36;;;;;;;;;;;22.40;52.90;;;;;;4977473;28;19944;-65
2022/05/15 06:33:02;;;;;;;;;;;22.40;52.80;;;;;;4976951;28;19914;-64
2022/05/15 06:35:27;;;;;;;;;;;22.40;53.00;;;;;;4977893;28;19925;-65
2022/05/15 06:37:53;;;;;;;;;;;22.40;52.90;;;;;;4976856;28;19918;-65
2022/05/15 06:40:18;;;;;;;;;;;22.40;52.80;;;;;;4973239;28;19922;-63
2022/05/15 06:42:43;;;;;;;;;;;22.40;52.80;;;;;;4976037;28;19949;-65
2022/05/15 06:45:10;;;;;;;;;;;22.40;52.90;;;;;;4975154;28;20573;-64
2022/05/15 06:47:36;;;;;;;;;;;22.40;52.70;;;;;;4977263;28;20005;-65
2022/05/15 06:50:01;;;;;;;;;;;22.40;52.70;;;;;;4974066;28;19922;-65
2022/05/15 06:52:27;;;;;;;;;;;22.30;52.80;;;;;;4973541;28;19918;-64
2022/05/15 06:54:52;;;;;;;;;;;22.30;52.80;;;;;;4973326;28;19929;-64
2022/05/15 06:57:30;;;;;;;;;;;22.30;52.90;;;;;;4974176;28;19921;-64
2022/05/15 06:59:56;;;;;;;;;;;22.30;52.60;;;;;;4974414;28;20304;-65
2022/05/15 07:02:22;;;;;;;;;;;22.30;52.70;;;;;;4977522;28;19985;-65
2022/05/15 07:04:47;;;;;;;;;;;22.30;52.90;;;;;;4972137;28;19922;-65
2022/05/15 07:07:13;;;;;;;;;;;22.30;52.80;;;;;;4976078;28;19926;-65
2022/05/15 07:09:38;;;;;;;;;;;22.30;52.60;;;;;;4973508;28;19914;-64
2022/05/15 07:12:06;;;;;;;;;;;22.30;52.70;;;;;;4973327;28;20760;-65
2022/05/15 07:14:32;;;;;;;;;;;22.30;52.80;;;;;;4972931;28;20581;-65
2022/05/15 07:16:58;;;;;;;;;;;22.30;52.70;;;;;;4973528;28;19929;-64
2022/05/15 07:19:23;;;;;;;;;;;22.30;52.70;;;;;;4971558;28;19957;-64
2022/05/15 07:21:49;;;;;;;;;;;22.20;52.60;;;;;;4975191;28;20297;-64
2022/05/15 07:24:15;;;;;;;;;;;22.20;52.70;;;;;;4973660;28;20024;-65
2022/05/15 07:26:45;;;;;;;;;;;22.20;52.50;;;;;;4977768;28;19993;-66
2022/05/15 07:29:11;;;;;;;;;;;22.20;52.60;;;;;;4972015;28;20437;-66
2022/05/15 07:31:36;;;;;;;;;;;22.20;52.60;;;;;;4975837;28;20040;-64
2022/05/15 07:34:01;;;;;;;;;;;22.20;52.70;;;;;;4972858;28;19925;-66
2022/05/15 07:36:27;;;;;;;;;;;22.20;52.80;;;;;;4973192;28;19922;-65
2022/05/15 07:38:52;;;;;;;;;;;22.30;53.00;;;;;;4972307;28;19913;-65
2022/05/15 07:41:18;;;;;;;;;;;22.30;52.80;;;;;;4973928;28;19987;-65
2022/05/15 07:43:43;;;;;;;;;;;22.30;52.90;;;;;;4977308;28;19925;-64
2022/05/15 07:46:09;;;;;;;;;;;22.20;52.80;;;;;;4974445;28;20290;-65
2022/05/15 07:48:34;;;;;;;;;;;22.20;52.60;;;;;;4978448;28;19925;-65
2022/05/15 07:51:00;;;;;;;;;;;22.20;52.60;;;;;;4983928;28;20380;-65
2022/05/15 07:53:25;;;;;;;;;;;22.20;52.60;;;;;;4999698;28;19921;-65
2022/05/15 07:55:51;;;;;;;;;;;22.20;52.40;;;;;;5002313;28;19913;-65
2022/05/15 07:58:16;;;;;;;;;;;22.20;52.90;;;;;;4988467;28;19951;-64
2022/05/15 08:00:42;;;;;;;;;;;22.20;52.90;;;;;;4984554;28;19914;-69
2022/05/15 08:03:08;;;;;;;;;;;22.20;54.10;;;;;;4983123;28;19926;-69
2022/05/15 08:08:18;;;;;;;;;;;22.20;53.70;;;;;;4998638;28;19979;-69
2022/05/15 08:10:46;;;;;;;;;;;22.20;53.60;;;;;;5004690;28;20384;-69
2022/05/15 08:13:12;;;;;;;;;;;22.20;53.10;;;;;;4990867;28;19925;-70
2022/05/15 08:15:38;;;;;;;;;;;22.20;53.00;;;;;;4982064;28;19914;-69
2022/05/15 08:23:33;;;;;;;;;;;22.20;52.70;;;;;;4987786;28;19925;-68
2022/05/15 08:25:59;;;;;;;;;;;22.10;52.30;;;;;;4980581;28;19947;-69
2022/05/15 08:28:24;;;;;;;;;;;22.10;52.30;;;;;;4991261;28;19920;-68
2022/05/15 08:30:50;;;;;;;;;;;22.20;52.40;;;;;;5000594;28;19957;-69
2022/05/15 08:33:15;;;;;;;;;;;22.10;52.40;;;;;;4991708;28;20403;-67
2022/05/15 08:35:40;;;;;;;;;;;22.10;52.30;;;;;;4980537;28;19914;-70
2022/05/15 08:38:06;;;;;;;;;;;22.10;52.10;;;;;;4989629;28;19960;-69
2022/05/15 08:40:39;;;;;;;;;;;22.10;51.70;;;;;;4999444;28;19924;-69
2022/05/15 08:43:05;;;;;;;;;;;22.10;51.60;;;;;;4993540;28;19920;-67
2022/05/15 08:45:30;;;;;;;;;;;22.10;51.80;;;;;;4980625;28;20307;-68
2022/05/15 08:47:57;;;;;;;;;;;22.10;51.90;;;;;;4984090;28;19924;-68
2022/05/15 08:50:25;;;;;;;;;;;22.10;51.90;;;;;;4999480;28;19913;-68
2022/05/15 08:52:51;;;;;;;;;;;22.10;52.00;;;;;;4996520;28;20020;-69
2022/05/15 08:55:19;;;;;;;;;;;22.10;52.00;;;;;;4981511;28;19977;-69
2022/05/15 08:58:03;;;;;;;;;;;22.10;52.10;;;;;;4965734;28;20387;-69
2022/05/15 09:00:33;;;;;;;;;;;22.10;52.10;;;;;;5000506;28;20296;-69
2022/05/15 09:03:18;;;;;;;;;;;22.10;52.20;;;;;;4995899;28;20060;-69
2022/05/15 09:05:48;;;;;;;;;;;22.10;52.20;;;;;;4981400;28;19921;-67
2022/05/15 09:08:16;;;;;;;;;;;22.10;52.00;;;;;;4983151;28;20525;-68
2022/05/15 09:10:43;;;;;;;;;;;22.10;52.10;;;;;;5000508;28;19924;-69
2022/05/15 09:13:09;;;;;;;;;;;22.10;51.70;;;;;;4997364;28;20441;-68
2022/05/15 09:15:35;;;;;;;;;;;22.00;51.90;;;;;;4980298;28;20297;-68
2022/05/15 09:18:03;;;;;;;;;;;22.00;51.60;;;;;;4980953;28;19922;-67
2022/05/15 09:20:35;;;;;;;;;;;22.00;51.40;;;;;;5000656;28;19949;-67
2022/05/15 09:23:19;;;;;;;;;;;22.00;52.00;;;;;;4983194;28;19918;-69
2022/05/15 09:25:49;;;;;;;;;;;22.00;51.90;;;;;;4981616;28;19918;-68
2022/05/15 09:28:14;;;;;;;;;;;22.00;51.90;;;;;;4981334;28;19913;-68
2022/05/15 09:30:42;;;;;;;;;;;22.00;52.00;;;;;;4982775;28;19918;-69
2022/05/15 09:33:12;;;;;;;;;;;22.00;51.90;;;;;;4982840;28;20027;-69
2022/05/15 09:35:38;;;;;;;;;;;22.10;52.20;;;;;;4944368;28;19914;-68
2022/05/15 09:43:35;;;;;;;;;;;22.00;51.50;;;;;;4965286;28;19948;-70
2022/05/15 09:46:10;;;;;;;;;;;22.00;51.10;;;;;;4999400;28;20024;-69
2022/05/15 09:48:37;;;;;;;;;;;22.00;51.80;;;;;;4998345;28;20463;-69
2022/05/15 09:51:03;;;;;;;;;;;22.00;51.50;;;;;;4979995;28;19926;-67
2022/05/15 09:53:38;;;;;;;;;;;22.00;51.60;;;;;;4963602;28;19964;-67
2022/05/15 09:56:10;;;;;;;;;;;22.00;52.40;;;;;;4960692;28;19956;-69
2022/05/15 09:58:38;;;;;;;;;;;22.00;51.30;;;;;;4960814;28;20460;-69
2022/05/15 10:01:15;;;;;;;;;;;22.00;51.40;;;;;;5002357;28;20027;-68
2022/05/15 10:03:40;;;;;;;;;;;22.00;51.50;;;;;;4986015;28;19933;-68
2022/05/15 10:06:06;;;;;;;;;;;22.00;51.80;;;;;;4984633;28;19918;-69
2022/05/15 10:08:32;;;;;;;;;;;22.00;51.00;;;;;;4966197;28;19922;-68
2022/05/15 10:10:59;;;;;;;;;;;22.10;51.00;;;;;;4984448;28;19918;-68
2022/05/15 10:13:44;;;;;;;;;;;22.10;50.70;;;;;;4966780;28;20573;-69
2022/05/15 10:16:10;;;;;;;;;;;22.00;50.80;;;;;;5003284;28;19952;-67
2022/05/15 10:18:51;;;;;;;;;;;22.10;50.70;;;;;;5002006;28;19918;-68
2022/05/15 10:21:16;;;;;;;;;;;22.10;50.80;;;;;;4984885;28;19925;-69
2022/05/15 10:23:45;;;;;;;;;;;22.00;50.50;;;;;;4982187;28;19925;-69
2022/05/15 10:26:18;;;;;;;;;;;22.10;50.50;;;;;;5001112;28;19920;-69
2022/05/15 10:28:52;;;;;;;;;;;22.10;50.70;;;;;;5000619;28;19967;-69
2022/05/15 10:31:22;;;;;;;;;;;22.10;50.50;;;;;;4985085;28;20294;-68
2022/05/15 10:33:49;;;;;;;;;;;22.10;50.50;;;;;;4982524;28;20177;-68
2022/05/15 10:36:25;;;;;;;;;;;22.10;50.30;;;;;;4999777;28;20708;-69
2022/05/15 10:38:53;;;;;;;;;;;22.10;50.40;;;;;;5002827;28;19918;-69
2022/05/15 10:41:20;;;;;;;;;;;22.10;50.30;;;;;;4986659;28;20392;-69
2022/05/15 10:43:53;;;;;;;;;;;22.10;50.30;;;;;;4982216;28;19918;-68
2022/05/15 10:46:37;;;;;;;;;;;22.10;50.50;;;;;;4998962;28;20343;-68
2022/05/15 10:49:05;;;;;;;;;;;22.10;50.50;;;;;;5002726;28;19922;-69
2022/05/15 10:51:34;;;;;;;;;;;22.10;50.50;;;;;;5003693;28;20769;-69
2022/05/15 10:57:21;;;;;;;;;;;22.10;50.70;;;;;;4963028;28;19922;-69
2022/05/15 11:00:07;;;;;;;;;;;22.00;50.70;;;;;;4960656;28;19918;-70
2022/05/15 11:02:47;;;;;;;;;;;22.00;50.70;;;;;;5001463;28;19930;-68
2022/05/15 11:05:15;;;;;;;;;;;22.00;50.70;;;;;;4998645;28;19925;-70
2022/05/15 11:07:49;;;;;;;;;;;22.00;50.70;;;;;;4984070;28;20004;-70
2022/05/15 11:10:18;;;;;;;;;;;22.00;50.90;;;;;;4985484;28;19918;-69
2022/05/15 11:12:58;;;;;;;;;;;22.00;50.70;;;;;;5002399;28;19917;-68
2022/05/15 11:15:37;;;;;;;;;;;22.00;50.60;;;;;;4997520;28;19922;-69
2022/05/15 11:18:06;;;;;;;;;;;22.00;50.70;;;;;;4982073;28;19924;-70
2022/05/15 11:20:35;;;;;;;;;;;22.00;50.70;;;;;;4986091;28;19921;-69
2022/05/15 11:23:04;;;;;;;;;;;22.00;50.70;;;;;;5001121;28;19918;-69
2022/05/15 11:25:32;;;;;;;;;;;22.00;50.70;;;;;;4997720;28;19940;-69
2022/05/15 11:28:02;;;;;;;;;;;22.00;50.80;;;;;;4981775;28;19918;-70
2022/05/15 11:30:28;;;;;;;;;;;22.00;51.00;;;;;;4968667;28;20019;-69
2022/05/15 11:32:54;;;;;;;;;;;22.00;50.70;;;;;;5001385;28;20543;-69
2022/05/15 11:35:20;;;;;;;;;;;22.00;50.50;;;;;;5001570;28;20016;-69
2022/05/15 11:38:04;;;;;;;;;;;22.00;51.50;;;;;;4983192;28;19921;-69
2022/05/15 11:40:35;;;;;;;;;;;22.00;50.70;;;;;;4984200;28;19917;-68
2022/05/15 11:43:20;;;;;;;;;;;22.00;50.50;;;;;;5001700;28;20310;-67
2022/05/15 11:45:48;;;;;;;;;;;22.00;50.70;;;;;;4997378;28;19964;-68
2022/05/15 11:48:17;;;;;;;;;;;22.00;50.90;;;;;;4980657;28;20016;-70
2022/05/15 11:50:56;;;;;;;;;;;22.00;51.10;;;;;;4983546;28;20549;-69
2022/05/15 11:53:25;;;;;;;;;;;22.00;50.90;;;;;;5000805;28;20582;-69
2022/05/15 11:55:51;;;;;;;;;;;22.00;51.10;;;;;;4998254;28;19914;-70
2022/05/15 11:58:20;;;;;;;;;;;22.00;50.90;;;;;;4980029;28;19918;-70
2022/05/15 12:00:58;;;;;;;;;;;22.00;51.00;;;;;;4983228;28;19913;-69
2022/05/15 12:03:40;;;;;;;;;;;22.00;50.70;;;;;;5001987;28;19975;-70
2022/05/15 12:06:07;;;;;;;;;;;22.00;50.30;;;;;;4997779;28;19918;-69
2022/05/15 12:08:33;;;;;;;;;;;22.00;50.40;;;;;;4981016;28;20436;-67
2022/05/15 12:10:59;;;;;;;;;;;22.00;50.30;;;;;;4982562;28;19914;-69
2022/05/15 12:13:26;;;;;;;;;;;22.00;50.10;;;;;;5000563;28;19922;-69
2022/05/15 12:15:52;;;;;;;;;;;22.00;50.00;;;;;;5002097;28;19917;-69
2022/05/15 12:18:20;;;;;;;;;;;22.10;50.10;;;;;;4980596;28;20003;-70
2022/05/15 12:20:48;;;;;;;;;;;22.00;50.20;;;;;;4980874;28;19925;-69
2022/05/15 12:23:17;;;;;;;;;;;22.10;50.20;;;;;;4998277;28;19914;-68
2022/05/15 12:25:54;;;;;;;;;;;22.10;50.10;;;;;;5002108;28;20007;-69
2022/05/15 12:31:06;;;;;;;;;;;22.10;50.00;;;;;;4980713;28;19976;-69
2022/05/15 12:33:31;;;;;;;;;;;22.10;49.80;;;;;;4962335;28;19922;-70
2022/05/15 12:35:57;;;;;;;;;;;22.10;49.80;;;;;;4977450;28;20134;-69
2022/05/15 12:38:22;;;;;;;;;;;22.10;49.90;;;;;;4998264;28;19914;-66
2022/05/15 12:40:57;;;;;;;;;;;22.10;50.00;;;;;;4999819;28;19917;-69
2022/05/15 12:43:26;;;;;;;;;;;22.10;50.00;;;;;;4984290;28;19957;-70
2022/05/15 12:45:52;;;;;;;;;;;22.10;50.10;;;;;;4982658;28;19957;-69
2022/05/15 12:48:19;;;;;;;;;;;22.10;50.10;;;;;;4997625;28;19953;-70
2022/05/15 12:50:48;;;;;;;;;;;22.10;50.30;;;;;;5000264;28;19914;-69
2022/05/15 12:53:17;;;;;;;;;;;22.10;50.30;;;;;;4985857;28;19921;-70
2022/05/15 12:55:43;;;;;;;;;;;22.10;50.30;;;;;;4975491;28;19917;-70
2022/05/15 12:58:09;;;;;;;;;;;22.10;50.30;;;;;;4997357;28;21281;-70
2022/05/15 13:00:36;;;;;;;;;;;22.10;50.30;;;;;;5001895;28;19913;-70
2022/05/15 13:03:03;;;;;;;;;;;22.10;50.30;;;;;;4988265;28;19925;-68
2022/05/15 13:05:31;;;;;;;;;;;22.10;50.30;;;;;;4980715;28;19972;-70
2022/05/15 13:07:58;;;;;;;;;;;22.10;50.20;;;;;;4990653;28;19983;-70
2022/05/15 13:10:24;;;;;;;;;;;22.10;50.10;;;;;;4999034;28;20450;-69
2022/05/15 13:12:51;;;;;;;;;;;22.10;50.00;;;;;;4991437;28;20020;-69
2022/05/15 13:15:18;;;;;;;;;;;22.10;50.00;;;;;;4980249;28;20068;-68
2022/05/15 13:17:43;;;;;;;;;;;22.10;49.80;;;;;;4971833;28;19917;-70
2022/05/15 13:20:15;;;;;;;;;;;22.10;50.00;;;;;;4999316;28;19917;-70
2022/05/15 13:22:40;;;;;;;;;;;22.10;50.00;;;;;;4977570;28;20577;-68
2022/05/15 13:25:26;;;;;;;;;;;22.10;49.80;;;;;;4963196;28;19918;-69
2022/05/15 13:27:52;;;;;;;;;;;22.10;49.90;;;;;;4976767;28;20004;-69
2022/05/15 13:30:21;;;;;;;;;;;22.10;49.90;;;;;;4998798;28;19975;-68
2022/05/15 13:32:47;;;;;;;;;;;22.10;50.00;;;;;;4994344;28;20040;-68
2022/05/15 13:35:13;;;;;;;;;;;22.10;49.80;;;;;;4982727;28;19918;-69
2022/05/15 13:37:39;;;;;;;;;;;22.10;50.00;;;;;;4987643;28;19921;-68
2022/05/15 13:45:47;;;;;;;;;;;22.20;50.00;;;;;;4984270;28;19972;-69
2022/05/15 13:48:13;;;;;;;;;;;22.10;50.00;;;;;;4981155;28;19913;-68
2022/05/15 13:50:42;;;;;;;;;;;22.20;49.80;;;;;;5003940;28;19918;-69
2022/05/15 13:53:22;;;;;;;;;;;22.20;50.00;;;;;;4997137;28;19929;-69
2022/05/15 13:55:48;;;;;;;;;;;22.10;50.00;;;;;;4983708;28;19924;-67
2022/05/15 13:58:13;;;;;;;;;;;22.10;50.00;;;;;;4990929;28;19917;-69
2022/05/15 14:00:41;;;;;;;;;;;22.20;50.00;;;;;;5003678;28;19925;-68
2022/05/15 14:03:08;;;;;;;;;;;22.20;50.00;;;;;;4998430;28;20580;-68
2022/05/15 14:05:34;;;;;;;;;;;22.10;49.80;;;;;;4983712;28;19929;-69
2022/05/15 14:08:13;;;;;;;;;;;22.20;49.90;;;;;;4985364;28;19996;-69
2022/05/15 14:10:38;;;;;;;;;;;22.20;49.80;;;;;;5003730;28;20391;-67
2022/05/15 14:13:04;;;;;;;;;;;22.20;49.90;;;;;;4984369;28;19976;-66
2022/05/15 14:15:36;;;;;;;;;;;22.20;49.80;;;;;;4983731;28;20623;-67
2022/05/15 14:18:02;;;;;;;;;;;22.20;49.80;;;;;;4984998;28;20587;-67
2022/05/15 14:20:29;;;;;;;;;;;22.20;49.70;;;;;;4983110;28;19996;-67
2022/05/15 14:22:55;;;;;;;;;;;22.20;49.50;;;;;;4983552;28;19949;-67
2022/05/15 14:25:21;;;;;;;;;;;22.20;49.60;;;;;;5000955;28;19920;-68
2022/05/15 14:27:47;;;;;;;;;;;22.20;49.40;;;;;;4967237;28;19914;-68
2022/05/15 14:30:12;;;;;;;;;;;22.20;49.50;;;;;;5000256;28;20392;-68
2022/05/15 14:32:38;;;;;;;;;;;22.20;49.40;;;;;;5001607;28;19917;-69
2022/05/15 14:35:05;;;;;;;;;;;22.20;49.50;;;;;;4986851;28;20754;-68
2022/05/15 14:37:30;;;;;;;;;;;22.20;49.50;;;;;;4982951;28;19950;-67
2022/05/15 14:39:56;;;;;;;;;;;22.20;49.40;;;;;;4996212;28;19924;-69
2022/05/15 14:42:21;;;;;;;;;;;22.20;49.50;;;;;;5002221;28;20472;-69
2022/05/15 14:44:46;;;;;;;;;;;22.20;49.50;;;;;;4991565;28;19921;-67
2022/05/15 14:47:14;;;;;;;;;;;22.20;49.40;;;;;;4983637;28;19918;-69